WetterOnline ( https://www.wetteronline.ch )

Wetter aktuell Messina

Aktuelles Wetter: Messina (51m)

6-stündlich | Neueste Meldungen
Ortszeit Temperatur Wetter
Di, 01.12. 7:00 14.2° C leichter Regen
Di, 01.12. 1:00 15.6° C leicht bewölkt
Mo, 30.11. 19:00 16.0° C leicht bewölkt
Mo, 30.11. 13:00 18.8° C leicht bewölkt
Mo, 30.11. 7:00 15.0° C bewölkt
Mo, 30.11. 1:00 14.8° C leicht bewölkt
So, 29.11. 19:00 15.0° C leicht bewölkt
So, 29.11. 13:00 18.4° C leicht bewölkt
Ortszeit Temperatur Wetter
Di, 01.12. 9:00 14.2° C leichter Regen
Di, 01.12. 8:55 14° C leichter Regen
Di, 01.12. 8:00 14.2° C wolkig, nach Regen
Di, 01.12. 7:55 14° C bewölkt
Di, 01.12. 7:00 14.2° C leichter Regen
Di, 01.12. 6:55 14° C leichter Regen
Di, 01.12. 6:00 14.2° C wolkig
Di, 01.12. 5:55 14° C leicht bewölkt
Di, 01.12. 5:00 14.6° C wolkig, nach Regen
Ortszeit Relative Feuchte Sichtweite
Di, 01.12. 7:00 96% 9 km
Di, 01.12. 1:00 71% 12 km
Mo, 30.11. 19:00 67% 16 km
Mo, 30.11. 13:00 43% 20 km
Mo, 30.11. 7:00 71% 10 km
Mo, 30.11. 1:00 73% 12 km
So, 29.11. 19:00 74% 12 km
So, 29.11. 13:00 40% 20 km
Ortszeit Relative Feuchte Sichtweite
Di, 01.12. 9:00 85% 4 km
Di, 01.12. 8:55 88% 9 km
Di, 01.12. 8:00 92% 10 km
Di, 01.12. 7:55 94% >10 km
Di, 01.12. 7:00 96% 9 km
Di, 01.12. 6:55 100% 9 km
Di, 01.12. 6:00 81% 10 km
Di, 01.12. 5:55 82% >10 km
Di, 01.12. 5:00 84% 10 km
Ortszeit Niederschlagsmenge Niederschlagsart
Di, 01.12. 7:00 0.4 l/m2 in 12 Std. Regen
Di, 01.12. 1:00 0.0 l/m2 in 6 Std. -
Mo, 30.11. 19:00 0.0 l/m2 in 12 Std. -
Mo, 30.11. 13:00 0.0 l/m2 in 6 Std. -
Mo, 30.11. 7:00 3 l/m2 in 12 Std. Regen
Mo, 30.11. 1:00 0.0 l/m2 in 6 Std. -
So, 29.11. 19:00 0.0 l/m2 in 12 Std. -
So, 29.11. 13:00 0.0 l/m2 in 6 Std. -
Ortszeit Niederschlagsmenge Niederschlagsart
Di, 01.12. 9:00 keine Meldung -
Di, 01.12. 8:55 keine Meldung -
Di, 01.12. 8:00 keine Meldung -
Di, 01.12. 7:55 keine Meldung -
Di, 01.12. 7:00 keine Meldung -
Di, 01.12. 6:55 keine Meldung -
Di, 01.12. 6:00 keine Meldung -
Di, 01.12. 5:55 keine Meldung -
Di, 01.12. 5:00 keine Meldung -
Ortszeit Stärke Spitze Richtung
km/h Bft. km/h Grad Sektor
Di, 01.12. 7:00 2 1 - 240° SW
Di, 01.12. 1:00 6 1 - 340° N
Mo, 30.11. 19:00 4 1 - 310° NW
Mo, 30.11. 13:00 9 2 - 30° NO
Mo, 30.11. 7:00 15 3 - 270° W
Mo, 30.11. 1:00 9 2 - 310° NW
So, 29.11. 19:00 4 1 - - -
So, 29.11. 13:00 15 3 - 200° S
Ortszeit Stärke Spitze Richtung
km/h Bft. km/h Grad Sektor
Di, 01.12. 9:00 6 1 - 300° NW
Di, 01.12. 8:55 6 1 - 300° NW
Di, 01.12. 8:00 6 1 - 330° NW
Di, 01.12. 7:55 6 1 - 330° NW
Di, 01.12. 7:00 2 1 - 240° SW
Di, 01.12. 6:55 2 1 - 240° SW
Di, 01.12. 6:00 6 1 - 260° W
Di, 01.12. 5:55 6 1 - 260° W
Di, 01.12. 5:00 0 0 - - -
Ortszeit Untergrenze Bedeckung Gattung
total tief tief mittel hoch
Di, 01.12. 7:00 600 m 7/8 6/8 Sc As -
Di, 01.12. 1:00 450 m 5/8 4/8 Cu As -
Mo, 30.11. 19:00 600 m 3/8 3/8 Sc - -
Mo, 30.11. 13:00 600 m 4/8 3/8 Sc - Ci
Mo, 30.11. 7:00 450 m 8/8 6/8 Cu Ac -
Mo, 30.11. 1:00 1050 m 2/8 1/8 Cu Ac -
So, 29.11. 19:00 900 m 2/8 2/8 Sc - -
So, 29.11. 13:00 900 m 5/8 3/8 Sc - Cs
Ortszeit Bedeckungsgrad in Achtel und Wolkenuntergrenze
Di, 01.12. 9:00 5(900m) 6(2400m)
Di, 01.12. 8:55 5-7(900m)
Di, 01.12. 8:00 6(600m) 4(2400m)
Di, 01.12. 7:55 5-7(600m)
Di, 01.12. 7:00 6(600m) 4(2400m)
Di, 01.12. 6:55 5-7(600m)
Di, 01.12. 6:00 2(450m) 4(600m)
Di, 01.12. 5:55 1-2(450m) 3-4(600m)
Di, 01.12. 5:00 2(450m) 4(600m)
Ortszeit Luftdruck NN (hPa) Tendenz (hPa in 3 Std.)
Di, 01.12. 7:00 1018 - 0,7
Di, 01.12. 1:00 1019 + 0,3
Mo, 30.11. 19:00 1018 + 1,1
Mo, 30.11. 13:00 1016 + 1,5
Mo, 30.11. 7:00 1014 + 1,3
Mo, 30.11. 1:00 1011 + 1,7
So, 29.11. 19:00 1009 + 1,0
So, 29.11. 13:00 1008 - 0,1
Ortszeit Luftdruck NN (hPa) Tendenz (hPa in 3 Std.)
Di, 01.12. 9:00 1018 - 0,1
Di, 01.12. 8:55 1018 keine Meldung
Di, 01.12. 8:00 1018 - 0,5
Di, 01.12. 7:55 1017 keine Meldung
Di, 01.12. 7:00 1018 - 0,7
Di, 01.12. 6:55 1017 keine Meldung
Di, 01.12. 6:00 1018 - 0,9
Di, 01.12. 5:55 1018 keine Meldung
Di, 01.12. 5:00 1019 - 0,8
Ortszeit Schneehöhe (cm)
Di, 01.12. 7:00 0
Di, 01.12. 1:00 -
Mo, 30.11. 19:00 -
Mo, 30.11. 13:00 -
Mo, 30.11. 7:00 -
Mo, 30.11. 1:00 -
So, 29.11. 19:00 -
So, 29.11. 13:00 -
Ortszeit Schneehöhe (cm)
Di, 01.12. 9:00 -
Di, 01.12. 8:55 -
Di, 01.12. 8:00 -
Di, 01.12. 7:55 -
Di, 01.12. 7:00 0
Di, 01.12. 6:55 -
Di, 01.12. 6:00 -
Di, 01.12. 5:55 -
Di, 01.12. 5:00 -
Link zu dieser Seite / Seite empfehlen

Das Wetter in ...